sensor_id;sensor_type;location;lat;lon;timestamp;pressure;altitude;pressure_sealevel;temperature;humidity
79663;BME280;69130;48.724;8.982;2023-06-10T00:01:44;96129.84;;;17.04;66.14
79663;BME280;69130;48.724;8.982;2023-06-10T00:04:13;96125.66;;;17.01;66.30
79663;BME280;69130;48.724;8.982;2023-06-10T00:06:39;96126.66;;;17.00;67.60
79663;BME280;69130;48.724;8.982;2023-06-10T00:09:06;96129.53;;;16.89;67.74
79663;BME280;69130;48.724;8.982;2023-06-10T00:11:35;96126.06;;;16.79;68.50
79663;BME280;69130;48.724;8.982;2023-06-10T00:14:01;96128.69;;;16.71;68.43
79663;BME280;69130;48.724;8.982;2023-06-10T00:16:27;96130.25;;;16.64;68.89
79663;BME280;69130;48.724;8.982;2023-06-10T00:18:52;96134.06;;;16.62;68.79
79663;BME280;69130;48.724;8.982;2023-06-10T00:21:18;96131.69;;;16.58;67.94
79663;BME280;69130;48.724;8.982;2023-06-10T00:23:44;96138.50;;;16.53;68.57
79663;BME280;69130;48.724;8.982;2023-06-10T00:26:10;96133.00;;;16.45;69.17
79663;BME280;69130;48.724;8.982;2023-06-10T00:28:35;96136.81;;;16.42;69.49
79663;BME280;69130;48.724;8.982;2023-06-10T00:31:01;96129.94;;;16.40;70.74
79663;BME280;69130;48.724;8.982;2023-06-10T00:33:26;96135.31;;;16.30;70.67
79663;BME280;69130;48.724;8.982;2023-06-10T00:35:52;96130.13;;;16.29;70.56
79663;BME280;69130;48.724;8.982;2023-06-10T00:38:17;96130.28;;;16.27;71.03
79663;BME280;69130;48.724;8.982;2023-06-10T00:40:42;96123.84;;;16.20;71.72
79663;BME280;69130;48.724;8.982;2023-06-10T00:43:08;96127.81;;;16.07;70.60
79663;BME280;69130;48.724;8.982;2023-06-10T00:45:34;96120.97;;;15.95;70.66
79663;BME280;69130;48.724;8.982;2023-06-10T00:48:00;96132.34;;;15.97;71.91
79663;BME280;69130;48.724;8.982;2023-06-10T00:50:26;96130.69;;;15.96;72.24
79663;BME280;69130;48.724;8.982;2023-06-10T00:52:53;96123.66;;;15.95;72.93
79663;BME280;69130;48.724;8.982;2023-06-10T00:55:20;96125.22;;;15.88;73.29
79663;BME280;69130;48.724;8.982;2023-06-10T00:57:46;96127.34;;;15.84;73.40
79663;BME280;69130;48.724;8.982;2023-06-10T01:00:14;96126.34;;;15.85;74.10
79663;BME280;69130;48.724;8.982;2023-06-10T01:02:40;96120.03;;;15.86;74.05
79663;BME280;69130;48.724;8.982;2023-06-10T01:05:06;96125.66;;;15.83;73.64
79663;BME280;69130;48.724;8.982;2023-06-10T01:07:59;96131.41;;;15.79;73.89
79663;BME280;69130;48.724;8.982;2023-06-10T01:10:32;96118.38;;;15.76;74.52
79663;BME280;69130;48.724;8.982;2023-06-10T01:13:03;96118.94;;;15.69;74.75
79663;BME280;69130;48.724;8.982;2023-06-10T01:15:30;96122.19;;;15.63;74.16
79663;BME280;69130;48.724;8.982;2023-06-10T01:18:09;96109.84;;;15.62;74.22
79663;BME280;69130;48.724;8.982;2023-06-10T01:20:36;96117.16;;;15.60;74.57
79663;BME280;69130;48.724;8.982;2023-06-10T01:23:05;96117.75;;;15.45;73.95
79663;BME280;69130;48.724;8.982;2023-06-10T01:25:31;96118.44;;;15.56;74.71
79663;BME280;69130;48.724;8.982;2023-06-10T01:30:58;96120.66;;;15.51;74.05
79663;BME280;69130;48.724;8.982;2023-06-10T01:33:29;96108.88;;;15.54;74.75
79663;BME280;69130;48.724;8.982;2023-06-10T01:35:57;96116.06;;;15.44;74.71
79663;BME280;69130;48.724;8.982;2023-06-10T01:38:25;96119.13;;;15.49;75.90
79663;BME280;69130;48.724;8.982;2023-06-10T01:40:52;96117.44;;;15.48;75.77
79663;BME280;69130;48.724;8.982;2023-06-10T01:43:20;96121.38;;;15.44;76.13
79663;BME280;69130;48.724;8.982;2023-06-10T01:45:45;96116.03;;;15.34;76.07
79663;BME280;69130;48.724;8.982;2023-06-10T01:48:11;96121.63;;;15.31;76.72
79663;BME280;69130;48.724;8.982;2023-06-10T01:50:36;96123.91;;;15.26;77.44
79663;BME280;69130;48.724;8.982;2023-06-10T01:53:03;96129.22;;;15.26;77.17
79663;BME280;69130;48.724;8.982;2023-06-10T01:55:28;96124.59;;;15.19;76.90
79663;BME280;69130;48.724;8.982;2023-06-10T01:57:53;96122.22;;;14.87;75.31
79663;BME280;69130;48.724;8.982;2023-06-10T02:00:19;96128.94;;;15.01;77.29
79663;BME280;69130;48.724;8.982;2023-06-10T02:02:44;96128.66;;;15.04;77.53
79663;BME280;69130;48.724;8.982;2023-06-10T02:05:10;96123.75;;;14.90;77.54
79663;BME280;69130;48.724;8.982;2023-06-10T02:07:35;96135.53;;;14.87;77.35
79663;BME280;69130;48.724;8.982;2023-06-10T02:10:00;96131.59;;;14.91;77.43
79663;BME280;69130;48.724;8.982;2023-06-10T02:12:26;96130.91;;;14.89;78.25
79663;BME280;69130;48.724;8.982;2023-06-10T02:14:51;96136.38;;;14.88;78.60
79663;BME280;69130;48.724;8.982;2023-06-10T02:17:17;96142.53;;;14.88;78.98
79663;BME280;69130;48.724;8.982;2023-06-10T02:19:42;96137.19;;;14.88;79.42
79663;BME280;69130;48.724;8.982;2023-06-10T02:22:08;96142.81;;;14.85;79.32
79663;BME280;69130;48.724;8.982;2023-06-10T02:24:35;96139.16;;;14.86;79.57
79663;BME280;69130;48.724;8.982;2023-06-10T02:27:01;96140.16;;;14.75;79.06
79663;BME280;69130;48.724;8.982;2023-06-10T02:29:27;96142.50;;;14.78;79.81
79663;BME280;69130;48.724;8.982;2023-06-10T02:31:52;96145.03;;;14.70;80.17
79663;BME280;69130;48.724;8.982;2023-06-10T02:34:18;96157.34;;;14.62;80.22
79663;BME280;69130;48.724;8.982;2023-06-10T02:36:43;96154.94;;;14.59;80.28
79663;BME280;69130;48.724;8.982;2023-06-10T02:39:09;96161.53;;;14.55;80.63
79663;BME280;69130;48.724;8.982;2023-06-10T02:41:34;96154.53;;;14.54;80.95
79663;BME280;69130;48.724;8.982;2023-06-10T02:44:00;96159.16;;;14.52;81.18
79663;BME280;69130;48.724;8.982;2023-06-10T02:46:26;96155.06;;;14.48;81.16
79663;BME280;69130;48.724;8.982;2023-06-10T02:48:51;96158.81;;;14.36;81.08
79663;BME280;69130;48.724;8.982;2023-06-10T02:51:17;96155.31;;;14.45;81.81
79663;BME280;69130;48.724;8.982;2023-06-10T02:53:42;96154.63;;;14.43;81.98
79663;BME280;69130;48.724;8.982;2023-06-10T02:56:08;96158.66;;;14.37;82.09
79663;BME280;69130;48.724;8.982;2023-06-10T02:58:33;96158.28;;;14.42;82.37
79663;BME280;69130;48.724;8.982;2023-06-10T03:00:58;96152.94;;;14.42;82.54
79663;BME280;69130;48.724;8.982;2023-06-10T03:03:24;96159.78;;;14.35;82.27
79663;BME280;69130;48.724;8.982;2023-06-10T03:05:50;96156.91;;;14.27;82.13
79663;BME280;69130;48.724;8.982;2023-06-10T03:08:16;96161.16;;;14.29;82.17
79663;BME280;69130;48.724;8.982;2023-06-10T03:10:41;96159.34;;;14.30;82.69
79663;BME280;69130;48.724;8.982;2023-06-10T03:13:06;96160.31;;;14.29;82.87
79663;BME280;69130;48.724;8.982;2023-06-10T03:15:32;96153.44;;;14.26;82.64
79663;BME280;69130;48.724;8.982;2023-06-10T03:18:01;96172.06;;;14.26;82.97
79663;BME280;69130;48.724;8.982;2023-06-10T03:20:27;96166.81;;;14.15;82.87
79663;BME280;69130;48.724;8.982;2023-06-10T03:22:54;96174.03;;;14.03;83.27
79663;BME280;69130;48.724;8.982;2023-06-10T03:25:19;96176.25;;;13.98;83.63
79663;BME280;69130;48.724;8.982;2023-06-10T03:27:46;96170.22;;;13.96;84.11
79663;BME280;69130;48.724;8.982;2023-06-10T03:30:12;96181.41;;;13.90;84.26
79663;BME280;69130;48.724;8.982;2023-06-10T03:32:38;96175.50;;;13.87;84.92
79663;BME280;69130;48.724;8.982;2023-06-10T03:35:03;96185.28;;;13.86;84.88
79663;BME280;69130;48.724;8.982;2023-06-10T03:37:29;96180.16;;;13.94;85.24
79663;BME280;69130;48.724;8.982;2023-06-10T03:39:54;96186.72;;;13.90;85.50
79663;BME280;69130;48.724;8.982;2023-06-10T03:42:20;96186.00;;;13.88;85.60
79663;BME280;69130;48.724;8.982;2023-06-10T03:44:45;96184.19;;;13.89;85.36
79663;BME280;69130;48.724;8.982;2023-06-10T03:47:10;96184.00;;;13.81;85.87
79663;BME280;69130;48.724;8.982;2023-06-10T03:49:38;96188.00;;;13.75;85.69
79663;BME280;69130;48.724;8.982;2023-06-10T03:52:03;96195.41;;;13.72;85.11
79663;BME280;69130;48.724;8.982;2023-06-10T03:54:29;96188.09;;;13.85;85.66
79663;BME280;69130;48.724;8.982;2023-06-10T03:56:54;96196.00;;;13.96;86.24
79663;BME280;69130;48.724;8.982;2023-06-10T03:59:20;96194.69;;;13.90;86.24
79663;BME280;69130;48.724;8.982;2023-06-10T04:01:45;96198.31;;;13.89;86.26
79663;BME280;69130;48.724;8.982;2023-06-10T04:04:14;96190.34;;;13.89;86.27
79663;BME280;69130;48.724;8.982;2023-06-10T04:06:41;96189.94;;;13.94;86.69
79663;BME280;69130;48.724;8.982;2023-06-10T04:09:08;96200.16;;;13.89;86.22
79663;BME280;69130;48.724;8.982;2023-06-10T04:11:35;96192.81;;;13.81;86.24
79663;BME280;69130;48.724;8.982;2023-06-10T04:14:01;96186.78;;;13.79;86.38
79663;BME280;69130;48.724;8.982;2023-06-10T04:16:26;96184.78;;;13.72;86.03
79663;BME280;69130;48.724;8.982;2023-06-10T04:18:52;96194.03;;;13.77;86.66
79663;BME280;69130;48.724;8.982;2023-06-10T04:21:17;96199.13;;;13.80;86.12
79663;BME280;69130;48.724;8.982;2023-06-10T04:23:42;96197.09;;;13.93;86.83
79663;BME280;69130;48.724;8.982;2023-06-10T04:26:08;96202.03;;;13.98;87.22
79663;BME280;69130;48.724;8.982;2023-06-10T04:28:33;96197.72;;;14.07;87.62
79663;BME280;69130;48.724;8.982;2023-06-10T04:30:59;96201.53;;;14.14;87.68
79663;BME280;69130;48.724;8.982;2023-06-10T04:33:24;96206.19;;;14.21;87.81
79663;BME280;69130;48.724;8.982;2023-06-10T04:35:50;96204.75;;;14.28;87.60
79663;BME280;69130;48.724;8.982;2023-06-10T04:38:15;96200.41;;;14.37;86.82
79663;BME280;69130;48.724;8.982;2023-06-10T04:40:41;96198.22;;;14.42;86.49
79663;BME280;69130;48.724;8.982;2023-06-10T04:43:06;96199.78;;;14.54;85.76
79663;BME280;69130;48.724;8.982;2023-06-10T04:45:31;96204.44;;;14.61;85.39
79663;BME280;69130;48.724;8.982;2023-06-10T04:47:57;96204.88;;;14.66;84.57
79663;BME280;69130;48.724;8.982;2023-06-10T04:50:23;96210.91;;;14.78;84.22
79663;BME280;69130;48.724;8.982;2023-06-10T04:52:48;96216.56;;;14.94;84.41
79663;BME280;69130;48.724;8.982;2023-06-10T04:55:15;96208.47;;;15.05;83.63
79663;BME280;69130;48.724;8.982;2023-06-10T04:57:40;96202.31;;;15.14;83.09
79663;BME280;69130;48.724;8.982;2023-06-10T05:00:06;96202.47;;;15.22;82.21
79663;BME280;69130;48.724;8.982;2023-06-10T05:02:32;96206.94;;;15.31;82.94
79663;BME280;69130;48.724;8.982;2023-06-10T05:04:57;96211.56;;;15.29;82.22
79663;BME280;69130;48.724;8.982;2023-06-10T05:07:23;96212.88;;;15.35;81.73
79663;BME280;69130;48.724;8.982;2023-06-10T05:09:48;96218.06;;;15.46;81.55
79663;BME280;69130;48.724;8.982;2023-06-10T05:12:14;96212.59;;;15.47;80.51
79663;BME280;69130;48.724;8.982;2023-06-10T05:14:39;96219.34;;;15.51;80.67
79663;BME280;69130;48.724;8.982;2023-06-10T05:17:05;96215.16;;;15.58;80.64
79663;BME280;69130;48.724;8.982;2023-06-10T05:19:31;96211.06;;;15.73;80.63
79663;BME280;69130;48.724;8.982;2023-06-10T05:21:57;96207.78;;;15.89;80.96
79663;BME280;69130;48.724;8.982;2023-06-10T05:24:22;96214.78;;;16.09;80.49
79663;BME280;69130;48.724;8.982;2023-06-10T05:26:48;96221.88;;;16.28;80.54
79663;BME280;69130;48.724;8.982;2023-06-10T05:29:14;96225.94;;;16.41;80.20
79663;BME280;69130;48.724;8.982;2023-06-10T05:31:41;96223.75;;;16.64;78.70
79663;BME280;69130;48.724;8.982;2023-06-10T05:34:06;96227.63;;;16.79;78.13
79663;BME280;69130;48.724;8.982;2023-06-10T05:36:31;96227.81;;;16.95;77.93
79663;BME280;69130;48.724;8.982;2023-06-10T05:38:57;96227.16;;;17.11;76.57
79663;BME280;69130;48.724;8.982;2023-06-10T05:41:23;96227.66;;;17.24;76.36
79663;BME280;69130;48.724;8.982;2023-06-10T05:43:48;96219.88;;;17.30;75.71
79663;BME280;69130;48.724;8.982;2023-06-10T05:46:14;96229.91;;;17.46;74.65
79663;BME280;69130;48.724;8.982;2023-06-10T05:48:39;96224.13;;;17.51;73.84
79663;BME280;69130;48.724;8.982;2023-06-10T05:51:05;96231.44;;;17.66;74.12
79663;BME280;69130;48.724;8.982;2023-06-10T05:53:31;96238.25;;;17.78;72.43
79663;BME280;69130;48.724;8.982;2023-06-10T05:55:57;96230.38;;;17.94;72.86
79663;BME280;69130;48.724;8.982;2023-06-10T05:58:23;96226.72;;;17.95;71.90
79663;BME280;69130;48.724;8.982;2023-06-10T06:00:49;96226.50;;;18.14;71.99
79663;BME280;69130;48.724;8.982;2023-06-10T06:03:15;96230.91;;;18.23;70.79
79663;BME280;69130;48.724;8.982;2023-06-10T06:05:40;96232.28;;;18.27;71.64
79663;BME280;69130;48.724;8.982;2023-06-10T06:08:09;96235.19;;;18.34;71.52
79663;BME280;69130;48.724;8.982;2023-06-10T06:10:34;96235.38;;;18.58;72.67
79663;BME280;69130;48.724;8.982;2023-06-10T06:13:00;96237.31;;;18.74;71.22
79663;BME280;69130;48.724;8.982;2023-06-10T06:15:26;96231.59;;;18.77;70.21
79663;BME280;69130;48.724;8.982;2023-06-10T06:17:51;96236.41;;;18.99;70.24
79663;BME280;69130;48.724;8.982;2023-06-10T06:20:22;96234.09;;;19.12;69.19
79663;BME280;69130;48.724;8.982;2023-06-10T06:22:47;96238.06;;;19.34;68.70
79663;BME280;69130;48.724;8.982;2023-06-10T06:25:13;96234.66;;;19.32;67.73
79663;BME280;69130;48.724;8.982;2023-06-10T06:27:38;96233.72;;;19.41;67.45
79663;BME280;69130;48.724;8.982;2023-06-10T06:30:04;96231.09;;;19.57;67.69
79663;BME280;69130;48.724;8.982;2023-06-10T06:32:30;96240.19;;;19.88;67.51
79663;BME280;69130;48.724;8.982;2023-06-10T06:34:55;96236.16;;;19.92;65.62
79663;BME280;69130;48.724;8.982;2023-06-10T06:37:22;96241.38;;;20.10;64.93
79663;BME280;69130;48.724;8.982;2023-06-10T06:39:49;96240.88;;;20.14;65.43
79663;BME280;69130;48.724;8.982;2023-06-10T06:42:15;96245.06;;;20.33;66.19
79663;BME280;69130;48.724;8.982;2023-06-10T06:44:40;96246.06;;;20.56;64.35
79663;BME280;69130;48.724;8.982;2023-06-10T06:47:06;96247.19;;;20.77;63.09
79663;BME280;69130;48.724;8.982;2023-06-10T06:49:31;96244.13;;;20.88;61.92
79663;BME280;69130;48.724;8.982;2023-06-10T06:51:57;96254.03;;;21.04;61.02
79663;BME280;69130;48.724;8.982;2023-06-10T06:54:22;96253.81;;;21.14;60.71
79663;BME280;69130;48.724;8.982;2023-06-10T06:56:47;96252.41;;;21.26;59.65
79663;BME280;69130;48.724;8.982;2023-06-10T06:59:13;96260.13;;;21.37;61.07
79663;BME280;69130;48.724;8.982;2023-06-10T07:01:39;96256.34;;;21.46;59.54
79663;BME280;69130;48.724;8.982;2023-06-10T07:04:04;96260.34;;;21.58;59.52
79663;BME280;69130;48.724;8.982;2023-06-10T07:06:30;96263.47;;;21.69;58.38
79663;BME280;69130;48.724;8.982;2023-06-10T07:08:55;96265.78;;;21.72;58.33
79663;BME280;69130;48.724;8.982;2023-06-10T07:11:20;96258.56;;;21.73;58.31
79663;BME280;69130;48.724;8.982;2023-06-10T07:13:47;96259.94;;;22.00;58.64
79663;BME280;69130;48.724;8.982;2023-06-10T07:16:12;96266.94;;;22.31;57.18
79663;BME280;69130;48.724;8.982;2023-06-10T07:18:37;96253.19;;;22.41;56.45
79663;BME280;69130;48.724;8.982;2023-06-10T07:21:03;96256.16;;;22.69;55.70
79663;BME280;69130;48.724;8.982;2023-06-10T07:23:28;96251.44;;;23.00;53.62
79663;BME280;69130;48.724;8.982;2023-06-10T07:25:54;96257.31;;;23.32;54.75
79663;BME280;69130;48.724;8.982;2023-06-10T07:28:19;96259.53;;;23.44;53.41
79663;BME280;69130;48.724;8.982;2023-06-10T07:30:44;96257.50;;;23.81;53.04
79663;BME280;69130;48.724;8.982;2023-06-10T07:33:10;96255.13;;;23.57;53.22
79663;BME280;69130;48.724;8.982;2023-06-10T07:35:36;96250.59;;;24.14;52.70
79663;BME280;69130;48.724;8.982;2023-06-10T07:38:01;96253.81;;;24.03;51.37
79663;BME280;69130;48.724;8.982;2023-06-10T07:40:27;96248.19;;;24.68;51.07
79663;BME280;69130;48.724;8.982;2023-06-10T07:42:52;96247.50;;;24.17;49.51
79663;BME280;69130;48.724;8.982;2023-06-10T07:45:18;96251.84;;;24.61;49.83
79663;BME280;69130;48.724;8.982;2023-06-10T07:47:43;96250.22;;;24.87;48.47
79663;BME280;69130;48.724;8.982;2023-06-10T07:50:09;96245.72;;;24.73;48.15
79663;BME280;69130;48.724;8.982;2023-06-10T07:52:34;96250.47;;;24.44;48.19
79663;BME280;69130;48.724;8.982;2023-06-10T07:55:00;96253.38;;;25.25;47.27
79663;BME280;69130;48.724;8.982;2023-06-10T07:57:25;96242.53;;;25.32;46.36
79663;BME280;69130;48.724;8.982;2023-06-10T07:59:51;96252.03;;;25.96;44.57
79663;BME280;69130;48.724;8.982;2023-06-10T08:02:16;96252.78;;;25.02;46.41
79663;BME280;69130;48.724;8.982;2023-06-10T08:04:41;96254.09;;;25.94;45.83
79663;BME280;69130;48.724;8.982;2023-06-10T08:07:07;96256.38;;;25.90;45.72
79663;BME280;69130;48.724;8.982;2023-06-10T08:09:32;96255.25;;;26.39;46.10
79663;BME280;69130;48.724;8.982;2023-06-10T08:11:57;96254.03;;;26.87;44.37
79663;BME280;69130;48.724;8.982;2023-06-10T08:14:23;96258.38;;;26.29;43.43
79663;BME280;69130;48.724;8.982;2023-06-10T08:16:48;96255.28;;;27.04;44.55
79663;BME280;69130;48.724;8.982;2023-06-10T08:19:13;96250.84;;;27.42;44.33
79663;BME280;69130;48.724;8.982;2023-06-10T08:21:39;96252.13;;;26.55;42.24
79663;BME280;69130;48.724;8.982;2023-06-10T08:24:06;96254.66;;;27.73;44.05
79663;BME280;69130;48.724;8.982;2023-06-10T08:26:31;96255.13;;;27.63;43.04
79663;BME280;69130;48.724;8.982;2023-06-10T08:28:57;96254.78;;;28.04;41.75
79663;BME280;69130;48.724;8.982;2023-06-10T08:31:22;96261.66;;;28.06;41.10
79663;BME280;69130;48.724;8.982;2023-06-10T08:33:47;96257.28;;;28.05;41.24
79663;BME280;69130;48.724;8.982;2023-06-10T08:36:13;96254.91;;;27.64;42.19
79663;BME280;69130;48.724;8.982;2023-06-10T08:38:38;96253.78;;;27.85;42.26
79663;BME280;69130;48.724;8.982;2023-06-10T08:41:05;96258.38;;;27.34;43.56
79663;BME280;69130;48.724;8.982;2023-06-10T08:44:16;96254.09;;;28.08;40.68
79663;BME280;69130;48.724;8.982;2023-06-10T08:46:33;96257.31;;;27.35;40.39
79663;BME280;69130;48.724;8.982;2023-06-10T08:49:03;96257.44;;;28.41;41.81
79663;BME280;69130;48.724;8.982;2023-06-10T08:51:30;96267.56;;;28.66;41.34
79663;BME280;69130;48.724;8.982;2023-06-10T08:54:02;96254.69;;;28.55;39.12
79663;BME280;69130;48.724;8.982;2023-06-10T08:56:29;96259.91;;;28.49;39.86
79663;BME280;69130;48.724;8.982;2023-06-10T08:58:56;96256.44;;;28.67;39.64
79663;BME280;69130;48.724;8.982;2023-06-10T09:01:24;96257.75;;;28.65;39.98
79663;BME280;69130;48.724;8.982;2023-06-10T09:03:51;96254.06;;;28.46;41.20
79663;BME280;69130;48.724;8.982;2023-06-10T09:06:17;96251.13;;;28.47;40.08
79663;BME280;69130;48.724;8.982;2023-06-10T09:08:43;96246.78;;;28.40;41.18
79663;BME280;69130;48.724;8.982;2023-06-10T09:11:08;96245.53;;;28.42;39.04
79663;BME280;69130;48.724;8.982;2023-06-10T09:13:34;96252.72;;;28.62;40.04
79663;BME280;69130;48.724;8.982;2023-06-10T09:15:59;96256.75;;;28.84;41.45
79663;BME280;69130;48.724;8.982;2023-06-10T09:18:28;96256.41;;;28.74;38.94
79663;BME280;69130;48.724;8.982;2023-06-10T09:20:53;96253.88;;;28.97;39.62
79663;BME280;69130;48.724;8.982;2023-06-10T09:23:19;96253.97;;;28.66;40.19
79663;BME280;69130;48.724;8.982;2023-06-10T09:25:44;96255.47;;;28.86;38.43
79663;BME280;69130;48.724;8.982;2023-06-10T09:28:14;96256.09;;;28.26;40.11
79663;BME280;69130;48.724;8.982;2023-06-10T09:30:40;96248.81;;;27.76;39.45
79663;BME280;69130;48.724;8.982;2023-06-10T09:33:11;96248.59;;;27.07;41.88
79663;BME280;69130;48.724;8.982;2023-06-10T09:35:45;96245.66;;;28.23;39.80
79663;BME280;69130;48.724;8.982;2023-06-10T09:38:10;96246.78;;;29.20;38.59
79663;BME280;69130;48.724;8.982;2023-06-10T09:40:49;96252.47;;;28.94;39.45
79663;BME280;69130;48.724;8.982;2023-06-10T09:43:15;96250.63;;;28.32;38.92
79663;BME280;69130;48.724;8.982;2023-06-10T09:45:40;96252.31;;;29.14;38.98
79663;BME280;69130;48.724;8.982;2023-06-10T09:48:06;96252.06;;;29.15;39.77
79663;BME280;69130;48.724;8.982;2023-06-10T09:50:41;96246.50;;;29.65;39.61
79663;BME280;69130;48.724;8.982;2023-06-10T09:53:07;96255.59;;;29.59;39.13
79663;BME280;69130;48.724;8.982;2023-06-10T09:55:38;96247.69;;;28.90;39.55
79663;BME280;69130;48.724;8.982;2023-06-10T09:58:03;96249.34;;;28.35;39.74
79663;BME280;69130;48.724;8.982;2023-06-10T10:00:32;96242.47;;;28.26;41.33
79663;BME280;69130;48.724;8.982;2023-06-10T10:02:58;96243.09;;;28.59;38.05
79663;BME280;69130;48.724;8.982;2023-06-10T10:05:23;96241.13;;;27.59;40.12
79663;BME280;69130;48.724;8.982;2023-06-10T10:07:49;96245.63;;;27.85;41.60
79663;BME280;69130;48.724;8.982;2023-06-10T10:10:17;96244.47;;;27.68;41.04
79663;BME280;69130;48.724;8.982;2023-06-10T10:12:42;96238.06;;;28.31;40.18
79663;BME280;69130;48.724;8.982;2023-06-10T10:15:09;96237.78;;;28.08;40.53
79663;BME280;69130;48.724;8.982;2023-06-10T10:20:14;96229.34;;;26.17;44.78
79663;BME280;69130;48.724;8.982;2023-06-10T10:22:43;96237.47;;;27.21;42.22
79663;BME280;69130;48.724;8.982;2023-06-10T10:25:11;96231.13;;;27.47;42.39
79663;BME280;69130;48.724;8.982;2023-06-10T10:27:51;96231.78;;;27.93;44.16
79663;BME280;69130;48.724;8.982;2023-06-10T10:30:17;96229.94;;;28.25;40.56
79663;BME280;69130;48.724;8.982;2023-06-10T10:35:23;96229.88;;;27.56;40.47
79663;BME280;69130;48.724;8.982;2023-06-10T10:37:53;96235.03;;;26.81;42.88
79663;BME280;69130;48.724;8.982;2023-06-10T10:40:19;96237.94;;;26.92;40.55
79663;BME280;69130;48.724;8.982;2023-06-10T10:42:47;96229.59;;;26.67;43.57
79663;BME280;69130;48.724;8.982;2023-06-10T10:45:13;96230.75;;;27.30;42.68
79663;BME280;69130;48.724;8.982;2023-06-10T10:47:38;96225.41;;;26.39;42.33
79663;BME280;69130;48.724;8.982;2023-06-10T10:50:19;96235.81;;;26.29;43.96
79663;BME280;69130;48.724;8.982;2023-06-10T10:52:56;96233.09;;;27.27;40.75
79663;BME280;69130;48.724;8.982;2023-06-10T10:55:25;96232.44;;;27.38;39.68
79663;BME280;69130;48.724;8.982;2023-06-10T10:58:13;96225.13;;;27.25;40.73
79663;BME280;69130;48.724;8.982;2023-06-10T11:00:44;96220.97;;;27.80;39.29
79663;BME280;69130;48.724;8.982;2023-06-10T11:03:19;96228.88;;;27.95;39.44
79663;BME280;69130;48.724;8.982;2023-06-10T11:05:46;96219.44;;;27.91;38.34
79663;BME280;69130;48.724;8.982;2023-06-10T11:08:15;96221.75;;;27.94;38.13
79663;BME280;69130;48.724;8.982;2023-06-10T11:11:00;96213.56;;;28.63;40.31
79663;BME280;69130;48.724;8.982;2023-06-10T11:13:58;96214.41;;;29.06;39.23
79663;BME280;69130;48.724;8.982;2023-06-10T11:16:26;96212.44;;;28.70;38.16
79663;BME280;69130;48.724;8.982;2023-06-10T11:18:54;96213.84;;;28.55;38.28
79663;BME280;69130;48.724;8.982;2023-06-10T11:21:19;96211.66;;;28.32;40.10
79663;BME280;69130;48.724;8.982;2023-06-10T11:23:45;96216.81;;;27.78;39.89
79663;BME280;69130;48.724;8.982;2023-06-10T11:31:49;96206.59;;;28.91;40.74
79663;BME280;69130;48.724;8.982;2023-06-10T11:34:15;96212.94;;;28.85;40.26
79663;BME280;69130;48.724;8.982;2023-06-10T11:36:46;96206.97;;;28.95;38.54
79663;BME280;69130;48.724;8.982;2023-06-10T11:39:11;96205.75;;;28.10;39.47
79663;BME280;69130;48.724;8.982;2023-06-10T11:41:38;96206.47;;;27.99;39.88
79663;BME280;69130;48.724;8.982;2023-06-10T11:44:11;96204.25;;;28.14;40.66
79663;BME280;69130;48.724;8.982;2023-06-10T11:46:37;96211.66;;;27.94;40.25
79663;BME280;69130;48.724;8.982;2023-06-10T11:49:03;96201.78;;;27.69;41.35
79663;BME280;69130;48.724;8.982;2023-06-10T11:51:32;96201.22;;;27.53;40.93
79663;BME280;69130;48.724;8.982;2023-06-10T11:53:57;96192.75;;;27.75;39.40
79663;BME280;69130;48.724;8.982;2023-06-10T11:56:24;96197.53;;;27.28;41.00
79663;BME280;69130;48.724;8.982;2023-06-10T11:58:56;96198.25;;;26.91;40.79
79663;BME280;69130;48.724;8.982;2023-06-10T12:01:44;96200.56;;;26.74;41.77
79663;BME280;69130;48.724;8.982;2023-06-10T12:04:12;96195.16;;;26.81;41.67
79663;BME280;69130;48.724;8.982;2023-06-10T12:06:39;96191.16;;;26.84;42.04
79663;BME280;69130;48.724;8.982;2023-06-10T12:09:05;96198.00;;;27.19;42.29
79663;BME280;69130;48.724;8.982;2023-06-10T12:11:31;96189.75;;;27.96;40.13
79663;BME280;69130;48.724;8.982;2023-06-10T12:13:56;96184.91;;;27.98;41.58
79663;BME280;69130;48.724;8.982;2023-06-10T12:16:22;96187.66;;;28.22;40.15
79663;BME280;69130;48.724;8.982;2023-06-10T12:18:47;96184.16;;;27.27;40.38
79663;BME280;69130;48.724;8.982;2023-06-10T12:21:23;96190.34;;;26.63;41.73
79663;BME280;69130;48.724;8.982;2023-06-10T12:24:04;96188.47;;;26.57;44.76
79663;BME280;69130;48.724;8.982;2023-06-10T12:26:37;96187.63;;;26.50;42.03
79663;BME280;69130;48.724;8.982;2023-06-10T12:31:57;96184.94;;;27.47;43.13
79663;BME280;69130;48.724;8.982;2023-06-10T12:34:39;96183.13;;;27.21;41.50
79663;BME280;69130;48.724;8.982;2023-06-10T12:37:10;96175.16;;;27.39;41.87
79663;BME280;69130;48.724;8.982;2023-06-10T12:39:39;96182.38;;;27.58;40.66
79663;BME280;69130;48.724;8.982;2023-06-10T12:42:05;96180.81;;;27.38;41.55
79663;BME280;69130;48.724;8.982;2023-06-10T12:44:38;96180.00;;;27.18;41.51
79663;BME280;69130;48.724;8.982;2023-06-10T12:47:10;96180.78;;;27.31;40.66
79663;BME280;69130;48.724;8.982;2023-06-10T12:49:38;96174.63;;;26.98;42.40
79663;BME280;69130;48.724;8.982;2023-06-10T12:52:05;96175.88;;;27.02;40.97
79663;BME280;69130;48.724;8.982;2023-06-10T12:54:30;96176.97;;;26.75;42.81
79663;BME280;69130;48.724;8.982;2023-06-10T12:56:56;96178.88;;;26.42;44.11
79663;BME280;69130;48.724;8.982;2023-06-10T12:59:21;96185.69;;;25.92;42.98
79663;BME280;69130;48.724;8.982;2023-06-10T13:01:51;96181.09;;;25.92;43.78
79663;BME280;69130;48.724;8.982;2023-06-10T13:04:17;96173.34;;;25.83;41.83
79663;BME280;69130;48.724;8.982;2023-06-10T13:06:43;96176.09;;;25.96;42.51
79663;BME280;69130;48.724;8.982;2023-06-10T13:09:08;96170.00;;;25.74;43.19
79663;BME280;69130;48.724;8.982;2023-06-10T13:11:34;96171.06;;;25.86;43.98
79663;BME280;69130;48.724;8.982;2023-06-10T13:14:00;96165.03;;;26.04;42.16
79663;BME280;69130;48.724;8.982;2023-06-10T13:16:26;96166.94;;;26.43;42.53